Time;durP1;ratioP1;P1;durP2;ratioP2;P2;SDS_P1;SDS_P2;PMS_P1;PMS_P2;Temp;Humidity;BMP_temperature;BMP_pressure;BME280_temperature;BME280_humidity;BME280_pressure;Samples;Min_cycle;Max_cycle;Signal;HPM_P1;HPM_P2
2022/08/01 00:00:27;;;;;;;;;;;20.20;99.90;;;;;;8430721;28;19924;-70
2022/08/01 00:04:28;;;;;;;;;;;20.20;99.90;;;;;;8431312;28;20398;-70
2022/08/01 00:08:30;;;;;;;;;;;20.10;99.90;;;;;;8428340;28;19924;-70
2022/08/01 00:12:32;;;;;;;;;;;20.10;99.90;;;;;;8430486;28;20339;-70
2022/08/01 00:16:34;;;;;;;;;;;20.10;99.90;;;;;;8430175;28;19925;-70
2022/08/01 00:20:35;;;;;;;;;;;20.10;99.90;;;;;;8428898;28;19931;-70
2022/08/01 00:24:37;;;;;;;;;;;20.10;99.90;;;;;;8431642;28;19924;-70
2022/08/01 00:28:39;;;;;;;;;;;20.10;99.90;;;;;;8427097;28;19935;-70
2022/08/01 00:32:41;;;;;;;;;;;20.00;99.90;;;;;;8430149;28;19931;-70
2022/08/01 00:36:43;;;;;;;;;;;20.00;99.90;;;;;;8418347;28;19924;-70
2022/08/01 00:40:45;;;;;;;;;;;20.00;99.90;;;;;;8422738;28;19928;-70
2022/08/01 00:44:46;;;;;;;;;;;19.90;99.90;;;;;;8430489;28;19924;-70
2022/08/01 00:48:48;;;;;;;;;;;19.90;99.90;;;;;;8429872;28;20440;-70
2022/08/01 00:52:50;;;;;;;;;;;19.90;99.90;;;;;;8422036;28;19924;-70
2022/08/01 00:56:53;;;;;;;;;;;19.90;99.90;;;;;;8427048;28;20240;-70
2022/08/01 01:00:55;;;;;;;;;;;19.90;99.90;;;;;;8428766;28;19924;-70
2022/08/01 01:04:57;;;;;;;;;;;19.90;99.90;;;;;;8428384;28;19924;-70
2022/08/01 01:08:59;;;;;;;;;;;19.90;99.90;;;;;;8430181;28;19928;-70
2022/08/01 01:13:08;;;;;;;;;;;19.90;99.90;;;;;;8428784;28;19923;-70
2022/08/01 01:17:11;;;;;;;;;;;19.90;99.90;;;;;;8428887;28;20306;-70
2022/08/01 01:21:16;;;;;;;;;;;19.90;99.90;;;;;;8428221;28;19960;-70
2022/08/01 01:25:33;;;;;;;;;;;19.80;99.90;;;;;;8428274;28;19924;-70
2022/08/01 01:29:35;;;;;;;;;;;19.80;99.90;;;;;;8420937;28;20276;-70
2022/08/01 01:33:57;;;;;;;;;;;19.90;99.90;;;;;;8425385;28;20430;-70
2022/08/01 01:38:08;;;;;;;;;;;19.80;99.90;;;;;;8415996;28;19928;-70
2022/08/01 01:42:10;;;;;;;;;;;19.80;99.90;;;;;;8427359;28;20275;-70
2022/08/01 01:46:12;;;;;;;;;;;19.80;99.90;;;;;;8435641;28;19943;-70
2022/08/01 01:50:14;;;;;;;;;;;19.70;99.90;;;;;;8427187;28;19931;-70
2022/08/01 01:54:17;;;;;;;;;;;19.70;99.90;;;;;;8427934;28;19931;-70
2022/08/01 01:58:19;;;;;;;;;;;19.80;99.90;;;;;;8425600;28;19928;-70
2022/08/01 02:02:22;;;;;;;;;;;19.70;99.90;;;;;;8427607;28;19931;-70
2022/08/01 02:06:25;;;;;;;;;;;19.80;99.90;;;;;;8428140;28;19924;-70
2022/08/01 02:10:28;;;;;;;;;;;19.70;99.90;;;;;;8423603;28;19924;-70
2022/08/01 02:14:30;;;;;;;;;;;19.70;99.90;;;;;;8427667;28;19935;-70
2022/08/01 02:18:32;;;;;;;;;;;19.80;99.90;;;;;;8426358;28;19931;-70
2022/08/01 02:22:36;;;;;;;;;;;19.80;99.90;;;;;;8425395;28;19932;-70
2022/08/01 02:26:40;;;;;;;;;;;19.80;99.90;;;;;;8424439;28;19931;-70
2022/08/01 02:30:45;;;;;;;;;;;19.80;99.90;;;;;;8426625;28;19935;-70
2022/08/01 02:34:49;;;;;;;;;;;19.80;99.90;;;;;;8427087;28;19928;-70
2022/08/01 02:38:51;;;;;;;;;;;19.70;99.90;;;;;;8412424;28;19924;-70
2022/08/01 02:42:54;;;;;;;;;;;19.70;99.90;;;;;;8428115;28;19930;-70
2022/08/01 02:47:03;;;;;;;;;;;19.70;99.90;;;;;;8433867;28;19924;-70
2022/08/01 02:51:06;;;;;;;;;;;19.70;99.90;;;;;;8425094;28;19947;-70
2022/08/01 02:55:08;;;;;;;;;;;19.70;99.90;;;;;;8432220;28;19924;-70
2022/08/01 02:59:13;;;;;;;;;;;19.70;99.90;;;;;;8433601;28;20240;-70
2022/08/01 03:03:15;;;;;;;;;;;19.60;99.90;;;;;;8432741;28;19924;-70
2022/08/01 03:07:17;;;;;;;;;;;19.60;99.90;;;;;;8433240;28;19924;-70
2022/08/01 03:11:20;;;;;;;;;;;19.60;99.90;;;;;;8432007;28;19931;-70
2022/08/01 03:15:22;;;;;;;;;;;19.60;99.90;;;;;;8433324;28;20287;-70
2022/08/01 03:19:26;;;;;;;;;;;19.60;99.90;;;;;;8432487;28;19928;-70
2022/08/01 03:23:29;;;;;;;;;;;19.60;99.90;;;;;;8429021;28;19924;-70
2022/08/01 03:27:39;;;;;;;;;;;19.60;99.90;;;;;;8432905;28;20343;-70
2022/08/01 03:31:43;;;;;;;;;;;19.60;99.90;;;;;;8432284;28;19977;-70
2022/08/01 03:35:49;;;;;;;;;;;19.60;99.90;;;;;;8426641;28;20300;-70
2022/08/01 03:39:57;;;;;;;;;;;19.60;99.90;;;;;;8423784;28;19924;-70
2022/08/01 03:44:03;;;;;;;;;;;19.60;99.90;;;;;;8426264;28;19924;-70
2022/08/01 03:48:10;;;;;;;;;;;19.50;99.90;;;;;;8425710;28;19951;-70
2022/08/01 03:52:12;;;;;;;;;;;19.60;99.90;;;;;;8437234;28;19935;-70
2022/08/01 03:56:16;;;;;;;;;;;19.50;99.90;;;;;;8430683;28;19928;-70
2022/08/01 04:00:18;;;;;;;;;;;19.50;99.90;;;;;;8431424;28;19947;-70
2022/08/01 04:04:20;;;;;;;;;;;19.50;99.90;;;;;;8438409;28;20027;-70
2022/08/01 04:08:21;;;;;;;;;;;19.50;99.90;;;;;;8431746;28;19932;-70
2022/08/01 04:12:23;;;;;;;;;;;19.50;99.90;;;;;;8430471;28;19935;-70
2022/08/01 04:16:25;;;;;;;;;;;19.50;99.90;;;;;;8431979;28;19932;-70
2022/08/01 04:20:26;;;;;;;;;;;19.50;99.90;;;;;;8429753;28;19946;-70
2022/08/01 04:24:30;;;;;;;;;;;19.50;99.90;;;;;;8426538;28;19924;-70
2022/08/01 04:28:34;;;;;;;;;;;19.40;99.90;;;;;;8424766;28;19999;-70
2022/08/01 04:32:38;;;;;;;;;;;19.40;99.90;;;;;;8430071;28;19924;-70
2022/08/01 04:36:41;;;;;;;;;;;19.50;99.90;;;;;;8427204;28;19927;-70
2022/08/01 04:40:45;;;;;;;;;;;19.40;99.90;;;;;;8425040;28;19924;-70
2022/08/01 04:44:47;;;;;;;;;;;19.40;99.90;;;;;;8430215;28;19947;-70
2022/08/01 04:48:49;;;;;;;;;;;19.40;99.90;;;;;;8430409;28;19927;-70
2022/08/01 04:52:51;;;;;;;;;;;19.50;99.90;;;;;;8427992;28;19924;-70
2022/08/01 04:56:58;;;;;;;;;;;19.50;99.90;;;;;;8430187;28;19928;-70
2022/08/01 05:01:00;;;;;;;;;;;19.50;99.90;;;;;;8428760;28;20418;-70
2022/08/01 05:05:02;;;;;;;;;;;19.50;99.90;;;;;;8429105;28;19924;-70
2022/08/01 05:09:04;;;;;;;;;;;19.40;99.90;;;;;;8425880;28;19947;-70
2022/08/01 05:13:06;;;;;;;;;;;19.40;99.90;;;;;;8428954;28;19931;-70
2022/08/01 05:17:08;;;;;;;;;;;19.50;99.90;;;;;;8430104;28;19928;-70
2022/08/01 05:21:10;;;;;;;;;;;19.40;99.90;;;;;;8425492;28;20295;-70
2022/08/01 05:25:12;;;;;;;;;;;19.50;99.90;;;;;;8429648;28;20263;-70
2022/08/01 05:29:13;;;;;;;;;;;19.50;99.90;;;;;;8428913;28;19924;-70
2022/08/01 05:33:15;;;;;;;;;;;19.50;99.90;;;;;;8428802;28;19924;-70
2022/08/01 05:37:17;;;;;;;;;;;19.50;99.90;;;;;;8416635;28;19924;-70
2022/08/01 05:41:18;;;;;;;;;;;19.50;99.90;;;;;;8434275;28;20332;-70
2022/08/01 05:45:20;;;;;;;;;;;19.50;99.90;;;;;;8428807;28;19977;-70
2022/08/01 05:49:22;;;;;;;;;;;19.60;99.90;;;;;;8421509;28;19924;-70
2022/08/01 05:53:24;;;;;;;;;;;19.60;99.90;;;;;;8387413;28;19978;-71
2022/08/01 05:57:25;;;;;;;;;;;19.60;99.90;;;;;;8387241;28;19939;-70
2022/08/01 06:01:29;;;;;;;;;;;19.60;99.90;;;;;;8384241;28;20260;-70
2022/08/01 06:05:30;;;;;;;;;;;19.60;99.90;;;;;;8418686;27;20435;-70
2022/08/01 06:09:32;;;;;;;;;;;19.60;99.90;;;;;;8400820;28;19924;-70
2022/08/01 06:13:34;;;;;;;;;;;19.60;99.90;;;;;;8400602;28;19931;-70
2022/08/01 06:17:45;;;;;;;;;;;19.60;99.90;;;;;;8385418;28;20295;-70
2022/08/01 06:21:47;;;;;;;;;;;19.60;99.90;;;;;;8384116;28;19924;-70
2022/08/01 06:25:51;;;;;;;;;;;19.50;99.90;;;;;;8386758;28;19932;-70
2022/08/01 06:29:53;;;;;;;;;;;19.50;99.90;;;;;;8385525;28;20387;-70
2022/08/01 06:33:56;;;;;;;;;;;19.50;99.90;;;;;;8387178;28;19924;-70
2022/08/01 06:37:58;;;;;;;;;;;19.40;99.90;;;;;;8385349;28;19925;-70
2022/08/01 06:42:00;;;;;;;;;;;19.40;99.90;;;;;;8384210;28;19928;-70
2022/08/01 06:46:01;;;;;;;;;;;19.40;99.90;;;;;;8385356;28;20011;-70
2022/08/01 06:50:04;;;;;;;;;;;19.40;99.90;;;;;;8384903;28;19931;-70
2022/08/01 06:54:05;;;;;;;;;;;19.40;99.90;;;;;;8384952;28;20012;-70
2022/08/01 06:58:07;;;;;;;;;;;19.40;99.90;;;;;;8385010;28;19924;-70
2022/08/01 07:02:09;;;;;;;;;;;19.40;99.90;;;;;;8385036;28;19974;-70
2022/08/01 07:06:11;;;;;;;;;;;19.40;99.90;;;;;;8385558;28;19935;-70
2022/08/01 07:10:12;;;;;;;;;;;19.40;99.90;;;;;;8385546;28;19929;-70
2022/08/01 07:14:14;;;;;;;;;;;19.40;99.90;;;;;;8416677;27;19990;-70
2022/08/01 07:18:16;;;;;;;;;;;19.50;99.90;;;;;;8384355;28;20280;-70
2022/08/01 07:22:17;;;;;;;;;;;19.40;99.90;;;;;;8385296;28;20383;-70
2022/08/01 07:26:24;;;;;;;;;;;19.50;99.90;;;;;;8385051;28;19925;-70
2022/08/01 07:30:26;;;;;;;;;;;19.50;99.90;;;;;;8388060;28;20032;-69
2022/08/01 07:34:27;;;;;;;;;;;19.50;99.90;;;;;;8391155;28;19925;-70
2022/08/01 07:38:29;;;;;;;;;;;19.50;99.90;;;;;;8390677;28;19924;-70
2022/08/01 07:42:31;;;;;;;;;;;19.50;99.90;;;;;;8422859;27;19924;-70
2022/08/01 07:46:32;;;;;;;;;;;19.50;99.90;;;;;;8390995;28;20362;-70
2022/08/01 07:50:34;;;;;;;;;;;19.50;99.90;;;;;;8388537;28;19962;-70
2022/08/01 07:54:36;;;;;;;;;;;19.50;99.90;;;;;;8390790;28;19925;-70
2022/08/01 07:58:38;;;;;;;;;;;19.50;99.90;;;;;;8390375;28;19932;-70
2022/08/01 08:02:39;;;;;;;;;;;19.50;99.90;;;;;;8392557;28;19936;-70
2022/08/01 08:06:41;;;;;;;;;;;19.40;99.90;;;;;;8393696;28;20224;-70
2022/08/01 08:10:43;;;;;;;;;;;19.40;99.90;;;;;;8389484;28;20395;-70
2022/08/01 08:14:44;;;;;;;;;;;19.40;99.90;;;;;;8388952;28;19999;-70
2022/08/01 08:18:46;;;;;;;;;;;19.40;99.90;;;;;;8423296;27;19931;-70
2022/08/01 08:22:47;;;;;;;;;;;19.40;99.90;;;;;;8390382;28;19932;-70
2022/08/01 08:26:50;;;;;;;;;;;19.40;99.90;;;;;;8390210;28;19932;-70
2022/08/01 08:30:54;;;;;;;;;;;19.40;99.90;;;;;;8387240;28;19928;-70
2022/08/01 08:34:56;;;;;;;;;;;19.50;99.90;;;;;;8389371;28;19947;-70
2022/08/01 08:39:02;;;;;;;;;;;19.50;99.90;;;;;;8388391;28;20358;-70
2022/08/01 08:43:05;;;;;;;;;;;19.60;99.90;;;;;;8389197;28;19925;-70
2022/08/01 08:47:07;;;;;;;;;;;19.60;99.90;;;;;;8389646;28;19925;-70
2022/08/01 08:51:11;;;;;;;;;;;19.70;99.90;;;;;;8387023;28;19924;-70
2022/08/01 08:55:14;;;;;;;;;;;19.70;99.90;;;;;;8387931;28;20294;-70
2022/08/01 08:59:16;;;;;;;;;;;19.70;99.90;;;;;;8387975;28;20395;-70
2022/08/01 09:03:17;;;;;;;;;;;19.80;99.90;;;;;;8389233;28;20252;-70
2022/08/01 09:07:19;;;;;;;;;;;19.90;99.90;;;;;;8388896;28;19931;-70
2022/08/01 09:11:21;;;;;;;;;;;19.90;99.90;;;;;;8386752;28;19931;-70
2022/08/01 09:15:37;;;;;;;;;;;19.90;99.90;;;;;;8387803;28;19967;-70
2022/08/01 09:19:40;;;;;;;;;;;20.00;99.90;;;;;;8385879;28;19932;-70
2022/08/01 09:23:42;;;;;;;;;;;20.00;99.90;;;;;;8390667;28;19938;-70
2022/08/01 09:28:01;;;;;;;;;;;20.00;99.90;;;;;;8387890;28;19928;-70
2022/08/01 09:32:05;;;;;;;;;;;20.10;99.90;;;;;;8387395;28;19958;-70
2022/08/01 09:36:07;;;;;;;;;;;20.10;99.90;;;;;;8385806;28;20290;-70
2022/08/01 09:40:09;;;;;;;;;;;20.20;99.90;;;;;;8386902;28;20371;-70
2022/08/01 09:44:11;;;;;;;;;;;20.20;99.90;;;;;;8387758;28;19946;-70
2022/08/01 09:48:13;;;;;;;;;;;20.20;99.90;;;;;;8386791;28;19931;-70
2022/08/01 09:52:22;;;;;;;;;;;20.20;99.90;;;;;;8386541;28;19952;-70
2022/08/01 09:56:34;;;;;;;;;;;20.30;99.90;;;;;;8388312;28;19928;-70
2022/08/01 10:00:36;;;;;;;;;;;20.30;99.90;;;;;;8386121;28;19928;-70
2022/08/01 10:04:47;;;;;;;;;;;20.40;99.90;;;;;;8389220;28;19977;-70
2022/08/01 10:08:49;;;;;;;;;;;20.50;99.90;;;;;;8386939;28;19929;-70
2022/08/01 10:12:51;;;;;;;;;;;20.50;99.90;;;;;;8385417;28;19924;-70
2022/08/01 10:16:55;;;;;;;;;;;20.60;99.90;;;;;;8386959;28;19924;-70
2022/08/01 10:21:00;;;;;;;;;;;20.70;99.90;;;;;;8383979;28;19943;-70
2022/08/01 10:25:03;;;;;;;;;;;20.80;99.90;;;;;;8387705;28;20375;-70
2022/08/01 10:29:05;;;;;;;;;;;20.80;99.90;;;;;;8387469;28;19929;-70
2022/08/01 10:33:07;;;;;;;;;;;20.90;99.90;;;;;;8385993;28;19925;-70
2022/08/01 10:37:09;;;;;;;;;;;21.00;99.90;;;;;;8385229;28;19924;-70
2022/08/01 10:41:12;;;;;;;;;;;21.00;99.90;;;;;;8386212;28;20008;-70
2022/08/01 10:45:15;;;;;;;;;;;21.00;99.90;;;;;;8386256;28;19931;-70
2022/08/01 10:49:17;;;;;;;;;;;21.10;99.90;;;;;;8385759;28;19925;-69
2022/08/01 10:53:20;;;;;;;;;;;21.10;99.90;;;;;;8385559;28;19934;-70
2022/08/01 10:57:24;;;;;;;;;;;21.10;99.90;;;;;;8387451;28;19932;-70
2022/08/01 11:01:34;;;;;;;;;;;21.10;99.90;;;;;;8384505;28;19929;-70
2022/08/01 11:05:39;;;;;;;;;;;21.20;99.90;;;;;;8388789;28;19977;-70
2022/08/01 11:09:42;;;;;;;;;;;21.20;99.90;;;;;;8390500;28;19943;-70
2022/08/01 11:14:12;;;;;;;;;;;21.20;99.90;;;;;;8393061;28;19924;-70
2022/08/01 11:18:26;;;;;;;;;;;21.20;99.90;;;;;;8391232;28;20404;-70
2022/08/01 11:22:30;;;;;;;;;;;21.20;99.90;;;;;;8391648;28;19960;-70
2022/08/01 11:26:31;;;;;;;;;;;21.20;99.90;;;;;;8391264;28;19924;-70
2022/08/01 11:30:33;;;;;;;;;;;21.20;99.90;;;;;;8390857;28;19924;-70
2022/08/01 11:34:55;;;;;;;;;;;21.20;99.90;;;;;;8391066;28;19925;-70
2022/08/01 11:38:56;;;;;;;;;;;21.30;99.90;;;;;;8390982;28;20302;-70
2022/08/01 11:43:13;;;;;;;;;;;21.30;99.90;;;;;;8390936;28;19925;-70
2022/08/01 11:47:15;;;;;;;;;;;21.40;99.90;;;;;;8389944;28;20303;-70
2022/08/01 11:51:16;;;;;;;;;;;21.40;99.90;;;;;;8391481;28;19939;-70
2022/08/01 11:55:26;;;;;;;;;;;21.40;99.90;;;;;;8390961;28;19924;-70
2022/08/01 11:59:39;;;;;;;;;;;21.50;99.90;;;;;;8390569;28;19924;-70
2022/08/01 12:03:41;;;;;;;;;;;21.50;99.90;;;;;;8391813;28;19931;-70
2022/08/01 12:07:49;;;;;;;;;;;21.50;99.90;;;;;;8389857;28;20372;-70
2022/08/01 12:11:52;;;;;;;;;;;21.60;99.90;;;;;;8390843;28;20375;-70
2022/08/01 12:15:53;;;;;;;;;;;21.60;99.90;;;;;;8389514;28;19929;-70
2022/08/01 12:19:57;;;;;;;;;;;21.60;99.90;;;;;;8389184;28;19928;-70
2022/08/01 12:24:02;;;;;;;;;;;21.70;99.90;;;;;;8388925;28;20394;-70
2022/08/01 12:28:05;;;;;;;;;;;21.70;99.90;;;;;;8390713;28;19960;-70
2022/08/01 12:32:21;;;;;;;;;;;21.80;99.90;;;;;;8391028;28;19928;-70
2022/08/01 12:36:28;;;;;;;;;;;21.80;99.90;;;;;;8388191;28;19925;-70
2022/08/01 12:40:31;;;;;;;;;;;21.80;99.90;;;;;;8387862;28;19932;-70
2022/08/01 12:59:37;;;;;;;;;;;21.80;99.90;;;;;;8387443;28;19919;-70
2022/08/01 13:03:40;;;;;;;;;;;22.00;99.90;;;;;;8387525;28;20249;-70
2022/08/01 13:07:47;;;;;;;;;;;22.10;99.90;;;;;;8388997;28;19932;-70
2022/08/01 13:11:49;;;;;;;;;;;22.20;99.90;;;;;;8389390;28;19924;-70
2022/08/01 13:16:04;;;;;;;;;;;22.20;99.90;;;;;;8387784;28;19929;-70
2022/08/01 13:20:06;;;;;;;;;;;22.20;99.90;;;;;;8386676;28;20244;-69
2022/08/01 13:24:12;;;;;;;;;;;22.30;99.90;;;;;;8388331;28;19924;-70
2022/08/01 13:28:14;;;;;;;;;;;22.30;99.90;;;;;;8388448;28;19996;-69
2022/08/01 13:32:16;;;;;;;;;;;22.30;99.90;;;;;;8387296;28;19928;-70
2022/08/01 13:36:30;;;;;;;;;;;22.40;99.90;;;;;;8388843;28;19928;-70
2022/08/01 13:40:32;;;;;;;;;;;22.40;99.90;;;;;;8386651;28;19924;-70
2022/08/01 13:44:34;;;;;;;;;;;22.50;99.90;;;;;;8385935;28;19931;-69
2022/08/01 13:48:36;;;;;;;;;;;22.50;99.90;;;;;;8418859;27;19935;-69
2022/08/01 13:52:37;;;;;;;;;;;22.50;99.90;;;;;;8386758;28;20279;-69
2022/08/01 13:56:39;;;;;;;;;;;22.60;99.90;;;;;;8386963;28;20271;-70
2022/08/01 14:00:41;;;;;;;;;;;22.70;99.90;;;;;;8385421;28;19925;-70
2022/08/01 14:04:42;;;;;;;;;;;22.80;99.90;;;;;;8386313;28;19966;-70
2022/08/01 14:08:44;;;;;;;;;;;22.80;99.90;;;;;;8389706;28;20046;-69
2022/08/01 14:12:47;;;;;;;;;;;22.80;99.90;;;;;;8389314;28;19932;-70
2022/08/01 14:16:49;;;;;;;;;;;22.90;99.90;;;;;;8386652;28;19978;-69
2022/08/01 14:20:51;;;;;;;;;;;22.90;99.90;;;;;;8385264;28;19928;-70
2022/08/01 14:24:55;;;;;;;;;;;22.90;99.90;;;;;;8387490;28;20214;-70
2022/08/01 14:29:01;;;;;;;;;;;22.90;99.90;;;;;;8385412;28;20787;-69
2022/08/01 14:33:03;;;;;;;;;;;22.90;99.90;;;;;;8385164;28;19925;-70
2022/08/01 14:37:04;;;;;;;;;;;22.90;99.90;;;;;;8384812;28;19933;-69
2022/08/01 14:41:06;;;;;;;;;;;23.00;99.90;;;;;;8387353;28;19932;-70
2022/08/01 14:45:08;;;;;;;;;;;23.00;99.90;;;;;;8387403;28;19935;-70
2022/08/01 14:49:10;;;;;;;;;;;23.10;99.90;;;;;;8385497;28;19970;-70
2022/08/01 14:53:12;;;;;;;;;;;23.20;99.90;;;;;;8385434;28;19935;-70
2022/08/01 14:57:17;;;;;;;;;;;23.20;99.90;;;;;;8418075;27;19924;-69
2022/08/01 15:01:19;;;;;;;;;;;23.30;99.90;;;;;;8384084;28;20440;-70
2022/08/01 15:05:21;;;;;;;;;;;23.20;99.90;;;;;;8386219;28;19963;-70
2022/08/01 15:09:24;;;;;;;;;;;23.30;99.90;;;;;;8385191;28;20341;-70
2022/08/01 15:13:25;;;;;;;;;;;23.30;99.90;;;;;;8384198;28;19975;-70
2022/08/01 15:17:31;;;;;;;;;;;23.40;99.90;;;;;;8388982;28;19924;-70
2022/08/01 15:21:33;;;;;;;;;;;23.40;99.90;;;;;;8386992;28;20299;-70
2022/08/01 15:25:42;;;;;;;;;;;23.50;99.90;;;;;;8387024;28;19935;-70
2022/08/01 15:29:43;;;;;;;;;;;23.50;99.90;;;;;;8384069;28;19924;-70
2022/08/01 15:33:45;;;;;;;;;;;23.60;99.90;;;;;;8384245;28;19925;-70
2022/08/01 15:37:47;;;;;;;;;;;23.70;99.90;;;;;;8385542;28;19939;-70
2022/08/01 15:41:49;;;;;;;;;;;23.80;99.90;;;;;;8384259;28;19936;-70
2022/08/01 15:45:50;;;;;;;;;;;23.90;99.90;;;;;;8387272;28;19928;-70
2022/08/01 15:49:52;;;;;;;;;;;24.00;99.90;;;;;;8384194;28;19924;-70
2022/08/01 15:53:54;;;;;;;;;;;24.10;99.90;;;;;;8391103;28;19924;-70
2022/08/01 15:57:55;;;;;;;;;;;24.30;99.90;;;;;;8389801;28;19932;-70
2022/08/01 16:01:57;;;;;;;;;;;24.50;99.90;;;;;;8424390;27;19928;-69
2022/08/01 16:05:59;;;;;;;;;;;24.90;99.90;;;;;;8391689;28;20460;-70
2022/08/01 16:10:01;;;;;;;;;;;25.40;99.90;;;;;;8388072;28;19924;-70
2022/08/01 16:14:03;;;;;;;;;;;25.90;99.90;;;;;;8388307;28;20287;-70
2022/08/01 16:18:07;;;;;;;;;;;26.40;99.90;;;;;;8387881;28;19924;-70
2022/08/01 16:22:08;;;;;;;;;;;26.80;99.90;;;;;;8391514;28;19925;-70
2022/08/01 16:26:11;;;;;;;;;;;27.20;99.90;;;;;;8393519;28;20418;-70
2022/08/01 16:30:28;;;;;;;;;;;27.50;99.90;;;;;;8391789;28;19935;-71
2022/08/01 16:34:29;;;;;;;;;;;27.80;99.90;;;;;;8387854;28;19920;-70
2022/08/01 16:38:31;;;;;;;;;;;28.10;99.90;;;;;;8389371;28;19931;-71
2022/08/01 16:42:32;;;;;;;;;;;28.30;99.90;;;;;;8389767;28;19927;-70
2022/08/01 16:46:34;;;;;;;;;;;28.40;99.90;;;;;;8389146;28;19931;-70
2022/08/01 16:50:36;;;;;;;;;;;28.50;99.90;;;;;;8421601;27;19924;-70
2022/08/01 16:54:37;;;;;;;;;;;28.70;99.90;;;;;;8421387;27;19931;-70
2022/08/01 16:58:39;;;;;;;;;;;28.70;99.90;;;;;;8423194;27;19925;-70
2022/08/01 17:02:41;;;;;;;;;;;28.60;99.90;;;;;;8387298;28;19947;-70
2022/08/01 17:06:44;;;;;;;;;;;28.50;99.90;;;;;;8389671;28;19924;-70
2022/08/01 17:10:46;;;;;;;;;;;28.40;99.90;;;;;;8387329;28;19925;-70
2022/08/01 17:14:48;;;;;;;;;;;28.30;99.90;;;;;;8387910;28;19924;-70
2022/08/01 17:18:49;;;;;;;;;;;28.10;99.90;;;;;;8386929;28;19931;-70
2022/08/01 17:22:51;;;;;;;;;;;27.80;99.90;;;;;;8387228;28;19931;-70
2022/08/01 17:26:53;;;;;;;;;;;27.40;99.90;;;;;;8420281;27;19921;-70
2022/08/01 17:30:54;;;;;;;;;;;27.00;99.90;;;;;;8387218;28;19931;-70
2022/08/01 17:34:56;;;;;;;;;;;26.60;99.90;;;;;;8388643;28;19924;-70
2022/08/01 17:38:58;;;;;;;;;;;26.20;99.90;;;;;;8386729;28;19955;-70
2022/08/01 17:43:00;;;;;;;;;;;25.90;99.90;;;;;;8385876;28;19921;-70
2022/08/01 17:47:01;;;;;;;;;;;25.60;99.90;;;;;;8387142;28;19920;-70
2022/08/01 17:51:03;;;;;;;;;;;25.40;99.90;;;;;;8385669;28;20379;-70
2022/08/01 17:55:05;;;;;;;;;;;25.20;99.90;;;;;;8387545;28;19928;-70
2022/08/01 17:59:07;;;;;;;;;;;25.10;99.90;;;;;;8386850;28;19974;-70
2022/08/01 18:03:10;;;;;;;;;;;24.90;99.90;;;;;;8387158;28;20287;-70
2022/08/01 18:07:12;;;;;;;;;;;24.80;99.90;;;;;;8386359;28;19924;-70
2022/08/01 18:11:15;;;;;;;;;;;24.60;99.90;;;;;;8385565;28;19920;-70
2022/08/01 18:15:17;;;;;;;;;;;24.50;99.90;;;;;;8389584;28;19928;-70
2022/08/01 18:19:19;;;;;;;;;;;24.30;99.90;;;;;;8387189;28;19925;-70
2022/08/01 18:23:21;;;;;;;;;;;24.20;99.90;;;;;;8385607;28;20279;-70
2022/08/01 18:27:22;;;;;;;;;;;24.10;99.90;;;;;;8385932;28;20390;-69
2022/08/01 18:31:24;;;;;;;;;;;24.00;99.90;;;;;;8385477;28;19928;-70
2022/08/01 18:35:26;;;;;;;;;;;24.00;99.90;;;;;;8386177;28;19924;-70
2022/08/01 18:39:33;;;;;;;;;;;23.80;99.90;;;;;;8384913;28;19921;-70
2022/08/01 18:43:35;;;;;;;;;;;23.80;99.90;;;;;;8388688;28;19920;-70
2022/08/01 18:47:37;;;;;;;;;;;23.70;99.90;;;;;;8385237;28;19999;-70
2022/08/01 18:51:40;;;;;;;;;;;23.50;99.90;;;;;;8384074;28;20264;-70
2022/08/01 18:55:45;;;;;;;;;;;23.40;99.90;;;;;;8386349;28;19978;-70
2022/08/01 18:59:47;;;;;;;;;;;23.20;99.90;;;;;;8385528;28;19920;-70
2022/08/01 19:03:48;;;;;;;;;;;23.10;99.90;;;;;;8417858;27;19970;-70
2022/08/01 19:07:50;;;;;;;;;;;22.90;99.90;;;;;;8386912;28;20386;-70
2022/08/01 19:12:06;;;;;;;;;;;22.70;99.90;;;;;;8384406;28;20394;-70
2022/08/01 19:16:07;;;;;;;;;;;22.50;99.90;;;;;;8385192;28;19921;-70
2022/08/01 19:20:09;;;;;;;;;;;22.40;99.90;;;;;;8384178;28;19920;-70
2022/08/01 19:24:18;;;;;;;;;;;22.20;99.90;;;;;;8384388;28;19920;-69
2022/08/01 19:28:24;;;;;;;;;;;22.10;99.90;;;;;;8392281;28;19927;-69
2022/08/01 19:32:27;;;;;;;;;;;21.90;99.90;;;;;;8391681;28;19920;-70
2022/08/01 19:36:29;;;;;;;;;;;21.80;99.90;;;;;;8389570;28;20368;-70
2022/08/01 19:40:31;;;;;;;;;;;21.60;99.90;;;;;;8390629;28;19919;-70
2022/08/01 19:44:32;;;;;;;;;;;21.50;99.90;;;;;;8391681;28;20012;-70
2022/08/01 19:48:35;;;;;;;;;;;21.30;99.90;;;;;;8390740;28;19927;-70
2022/08/01 19:52:37;;;;;;;;;;;21.20;99.90;;;;;;8391428;28;19920;-70
2022/08/01 19:56:43;;;;;;;;;;;21.00;99.90;;;;;;8393651;28;19936;-70
2022/08/01 20:00:46;;;;;;;;;;;20.90;99.90;;;;;;8389425;28;20267;-70
2022/08/01 20:04:48;;;;;;;;;;;20.80;99.90;;;;;;8390717;28;19955;-69
2022/08/01 20:08:50;;;;;;;;;;;20.60;99.90;;;;;;8389794;28;19928;-70
2022/08/01 20:12:55;;;;;;;;;;;20.50;99.90;;;;;;8390826;28;20284;-69
2022/08/01 20:16:56;;;;;;;;;;;20.30;99.90;;;;;;8388822;28;19921;-70
2022/08/01 20:20:59;;;;;;;;;;;20.20;99.90;;;;;;8389097;28;19940;-70
2022/08/01 20:25:01;;;;;;;;;;;20.10;99.90;;;;;;8390896;28;19924;-69
2022/08/01 20:29:03;;;;;;;;;;;20.00;99.90;;;;;;8393407;28;19950;-70
2022/08/01 20:33:06;;;;;;;;;;;20.00;99.90;;;;;;8389520;28;19920;-70
2022/08/01 20:37:09;;;;;;;;;;;19.90;99.90;;;;;;8387432;28;20295;-70
2022/08/01 20:41:14;;;;;;;;;;;19.80;99.90;;;;;;8386215;28;20295;-69
2022/08/01 20:45:16;;;;;;;;;;;19.80;99.90;;;;;;8389110;28;19921;-70
2022/08/01 20:49:20;;;;;;;;;;;19.70;99.90;;;;;;8389357;28;20164;-70
2022/08/01 20:53:22;;;;;;;;;;;19.60;99.90;;;;;;8389277;28;19972;-70
2022/08/01 20:57:26;;;;;;;;;;;19.50;99.90;;;;;;8390664;28;20008;-70
2022/08/01 21:01:41;;;;;;;;;;;19.40;99.90;;;;;;8396030;28;19951;-70
2022/08/01 21:05:45;;;;;;;;;;;19.40;99.90;;;;;;8423534;28;19994;-70
2022/08/01 21:10:06;;;;;;;;;;;19.30;99.90;;;;;;8427839;28;19965;-70
2022/08/01 21:14:09;;;;;;;;;;;19.20;99.90;;;;;;8429461;28;19920;-70
2022/08/01 21:18:15;;;;;;;;;;;19.10;99.90;;;;;;8435898;28;19920;-69
2022/08/01 21:22:22;;;;;;;;;;;19.00;99.90;;;;;;8429139;28;19920;-69
2022/08/01 21:26:27;;;;;;;;;;;18.90;99.90;;;;;;8428880;28;20355;-70
2022/08/01 21:30:29;;;;;;;;;;;18.80;99.90;;;;;;8428173;28;20344;-70
2022/08/01 21:34:31;;;;;;;;;;;18.70;99.90;;;;;;8428035;28;19920;-70
2022/08/01 21:38:34;;;;;;;;;;;18.70;99.90;;;;;;8416748;28;19920;-69
2022/08/01 21:42:37;;;;;;;;;;;18.60;99.90;;;;;;8427512;28;19924;-70
2022/08/01 21:46:39;;;;;;;;;;;18.60;99.90;;;;;;8428062;28;20335;-70
2022/08/01 21:50:53;;;;;;;;;;;18.50;99.90;;;;;;8427048;28;20282;-69
2022/08/01 21:55:00;;;;;;;;;;;18.40;99.90;;;;;;8421412;28;19920;-69
2022/08/01 21:59:09;;;;;;;;;;;18.30;99.90;;;;;;8427830;28;19927;-70
2022/08/01 22:03:10;;;;;;;;;;;18.20;99.90;;;;;;8428061;28;19919;-70
2022/08/01 22:07:13;;;;;;;;;;;18.20;99.90;;;;;;8428000;28;20371;-70
2022/08/01 22:11:17;;;;;;;;;;;18.10;99.90;;;;;;8425500;28;19999;-69
2022/08/01 22:15:22;;;;;;;;;;;18.10;99.90;;;;;;8427252;28;19920;-69
2022/08/01 22:19:24;;;;;;;;;;;18.00;99.90;;;;;;8427279;28;19927;-69
2022/08/01 22:23:45;;;;;;;;;;;18.00;99.90;;;;;;8427487;28;19971;-69
2022/08/01 22:27:47;;;;;;;;;;;17.90;99.90;;;;;;8426733;28;20435;-69
2022/08/01 22:32:06;;;;;;;;;;;17.90;99.90;;;;;;8422440;28;19920;-69
2022/08/01 22:36:08;;;;;;;;;;;17.80;99.90;;;;;;8418288;28;20007;-70
2022/08/01 22:40:11;;;;;;;;;;;17.80;99.90;;;;;;8416154;28;19942;-70
2022/08/01 22:44:13;;;;;;;;;;;17.70;99.90;;;;;;8425894;28;19927;-70
2022/08/01 22:48:21;;;;;;;;;;;17.60;99.90;;;;;;8426958;28;19920;-69
2022/08/01 22:52:26;;;;;;;;;;;17.60;99.90;;;;;;8426917;28;19927;-69
2022/08/01 22:56:28;;;;;;;;;;;17.50;99.90;;;;;;8426675;28;19945;-69
2022/08/01 23:00:31;;;;;;;;;;;17.50;99.90;;;;;;8425653;28;19928;-70
2022/08/01 23:04:42;;;;;;;;;;;17.40;99.90;;;;;;8433232;28;20278;-69
2022/08/01 23:08:44;;;;;;;;;;;17.40;99.90;;;;;;8439536;28;20310;-70
2022/08/01 23:12:47;;;;;;;;;;;17.40;99.90;;;;;;8431369;28;19920;-69
2022/08/01 23:16:49;;;;;;;;;;;17.40;99.90;;;;;;8433856;28;19920;-69
2022/08/01 23:20:51;;;;;;;;;;;17.30;99.90;;;;;;8433334;28;19943;-69
2022/08/01 23:45:29;;;;;;;;;;;17.10;99.90;;;;;;8432649;28;19993;-69
2022/08/01 23:49:50;;;;;;;;;;;17.10;99.90;;;;;;8431702;28;19959;-69
2022/08/01 23:53:54;;;;;;;;;;;17.00;99.90;;;;;;8432073;28;19959;-69
2022/08/01 23:57:56;;;;;;;;;;;16.90;99.90;;;;;;8431832;28;19920;-69
